Time;durP1;ratioP1;P1;durP2;ratioP2;P2;SDS_P1;SDS_P2;PMS_P1;PMS_P2;Temp;Humidity;BMP_temperature;BMP_pressure;BME280_temperature;BME280_humidity;BME280_pressure;Samples;Min_cycle;Max_cycle;Signal;HPM_P1;HPM_P2
2023/08/30 00:00:06;;;;;;;3.20;3.00;;;13.50;99.90;;;;;;5035488;28;20175;-65
2023/08/30 00:02:31;;;;;;;3.60;3.37;;;13.50;99.90;;;;;;5034741;28;20160;-67
2023/08/30 00:05:01;;;;;;;3.33;3.13;;;13.50;99.90;;;;;;5034518;28;20461;-65
2023/08/30 00:07:27;;;;;;;5.50;4.00;;;13.50;99.90;;;;;;5037380;28;20277;-70
2023/08/30 00:09:53;;;;;;;7.90;3.70;;;13.50;99.90;;;;;;5054793;28;20504;-71
2023/08/30 00:12:18;;;;;;;5.00;3.30;;;13.50;99.90;;;;;;5040825;28;20183;-71
2023/08/30 00:14:44;;;;;;;3.70;3.40;;;13.40;99.90;;;;;;5033386;28;20261;-71
2023/08/30 00:17:10;;;;;;;3.43;3.17;;;13.40;99.90;;;;;;5036412;28;20167;-72
2023/08/30 00:19:36;;;;;;;5.57;3.60;;;13.40;99.90;;;;;;5041321;28;20176;-72
2023/08/30 00:22:01;;;;;;;4.33;4.03;;;13.40;99.90;;;;;;5035176;28;20164;-68
2023/08/30 00:24:28;;;;;;;5.13;4.73;;;13.40;99.90;;;;;;5051514;28;20471;-71
2023/08/30 00:26:54;;;;;;;4.50;4.10;;;13.40;99.90;;;;;;5053752;28;20577;-72
2023/08/30 00:29:19;;;;;;;4.20;3.90;;;13.40;99.90;;;;;;5041792;28;20450;-65
2023/08/30 00:31:45;;;;;;;4.40;4.00;;;13.40;99.90;;;;;;5034772;28;20167;-66
2023/08/30 00:34:11;;;;;;;4.80;4.40;;;13.40;99.90;;;;;;5052530;28;20259;-67
2023/08/30 00:36:36;;;;;;;5.20;4.83;;;13.40;99.90;;;;;;5053750;28;20163;-69
2023/08/30 00:39:03;;;;;;;4.93;4.53;;;13.40;99.90;;;;;;5052761;28;20195;-65
2023/08/30 00:41:29;;;;;;;4.67;4.30;;;13.40;99.90;;;;;;5054544;28;20200;-72
2023/08/30 00:43:55;;;;;;;4.30;3.90;;;13.30;99.90;;;;;;5043339;28;20438;-72
2023/08/30 00:46:21;;;;;;;8.13;4.97;;;13.30;99.90;;;;;;5033694;28;20203;-65
2023/08/30 00:48:47;;;;;;;5.47;4.77;;;13.20;99.90;;;;;;5032524;28;20568;-72
2023/08/30 00:51:13;;;;;;;4.50;4.10;;;13.20;99.90;;;;;;5049052;28;20991;-68
2023/08/30 00:53:39;;;;;;;4.50;4.10;;;13.20;99.90;;;;;;5040070;28;20457;-65
2023/08/30 00:56:05;;;;;;;5.10;3.97;;;13.20;99.90;;;;;;5047942;28;20186;-71
2023/08/30 00:58:31;;;;;;;8.33;5.53;;;13.20;99.90;;;;;;5033529;28;20450;-67
2023/08/30 01:00:57;;;;;;;4.00;3.70;;;13.10;99.90;;;;;;5034111;28;20240;-72
2023/08/30 01:03:23;;;;;;;6.90;3.40;;;13.10;99.90;;;;;;5033834;28;20513;-71
2023/08/30 01:05:48;;;;;;;4.13;3.83;;;13.10;99.90;;;;;;5032741;28;20194;-65
2023/08/30 01:08:14;;;;;;;4.43;4.03;;;13.10;99.90;;;;;;5033740;28;20191;-66
2023/08/30 01:10:47;;;;;;;21.57;4.30;;;13.10;99.90;;;;;;5039380;28;20186;-72
2023/08/30 01:13:19;;;;;;;4.50;4.10;;;13.20;99.90;;;;;;5033131;28;20199;-73
2023/08/30 01:15:51;;;;;;;5.20;4.80;;;13.10;99.90;;;;;;5043928;28;20831;-72
2023/08/30 01:18:19;;;;;;;4.73;4.33;;;13.20;99.90;;;;;;5051672;28;20425;-68
2023/08/30 01:20:46;;;;;;;4.83;4.43;;;13.10;99.90;;;;;;5053887;28;20763;-72
2023/08/30 01:23:30;;;;;;;3.53;3.33;;;13.00;99.90;;;;;;5053225;28;20398;-66
2023/08/30 01:26:06;;;;;;;3.70;3.50;;;13.00;99.90;;;;;;5034535;28;20795;-66
2023/08/30 01:28:34;;;;;;;4.20;3.90;;;12.90;99.90;;;;;;5033028;28;20437;-72
2023/08/30 01:31:00;;;;;;;3.70;3.40;;;12.90;99.90;;;;;;5033591;28;20425;-70
2023/08/30 01:33:27;;;;;;;4.60;3.70;;;12.90;99.90;;;;;;5032979;28;21041;-72
2023/08/30 01:35:58;;;;;;;6.57;4.23;;;12.80;99.90;;;;;;5032666;28;20187;-72
2023/08/30 01:38:27;;;;;;;3.57;3.27;;;12.80;99.90;;;;;;5032117;28;21029;-71
2023/08/30 01:40:54;;;;;;;3.93;3.63;;;12.80;99.90;;;;;;5037490;28;20433;-72
2023/08/30 01:43:21;;;;;;;3.37;3.17;;;12.80;99.90;;;;;;5032903;28;20453;-69
2023/08/30 01:45:47;;;;;;;4.00;3.60;;;12.70;99.90;;;;;;5031618;28;20477;-71
2023/08/30 01:48:15;;;;;;;6.07;3.73;;;12.70;99.90;;;;;;5032311;28;20969;-66
2023/08/30 01:50:42;;;;;;;5.40;4.90;;;12.70;99.90;;;;;;5033418;28;20438;-66
2023/08/30 01:53:10;;;;;;;4.37;4.07;;;12.70;99.90;;;;;;5033135;28;20450;-65
2023/08/30 01:55:37;;;;;;;3.73;3.47;;;12.70;99.90;;;;;;5041455;28;21079;-66
2023/08/30 01:58:03;;;;;;;4.30;4.00;;;12.60;99.90;;;;;;5035334;28;20450;-67
2023/08/30 02:00:29;;;;;;;5.77;3.83;;;12.60;99.90;;;;;;5033166;28;20377;-71
2023/08/30 02:02:56;;;;;;;4.60;4.23;;;12.60;99.90;;;;;;5038159;28;20433;-68
2023/08/30 02:05:22;;;;;;;4.30;3.90;;;12.60;99.90;;;;;;5051159;28;20586;-72
2023/08/30 02:08:02;;;;;;;4.47;4.13;;;12.50;99.90;;;;;;5052006;28;20966;-65
2023/08/30 02:10:43;;;;;;;4.20;3.90;;;12.50;99.90;;;;;;5051427;28;20171;-70
2023/08/30 02:13:12;;;;;;;4.40;4.00;;;12.50;99.90;;;;;;5040499;28;20943;-72
2023/08/30 02:15:41;;;;;;;4.63;4.10;;;12.50;99.90;;;;;;5031878;28;20421;-70
2023/08/30 02:18:07;;;;;;;4.87;4.00;;;12.50;99.90;;;;;;5031200;28;20914;-72
2023/08/30 02:20:33;;;;;;;4.50;4.20;;;12.50;99.90;;;;;;5032388;28;20406;-65
2023/08/30 02:22:59;;;;;;;5.07;4.67;;;12.50;99.90;;;;;;5032851;28;20406;-72
2023/08/30 02:25:25;;;;;;;6.00;4.77;;;12.40;99.90;;;;;;5040273;28;20240;-64
2023/08/30 02:27:51;;;;;;;3.97;3.63;;;12.40;99.90;;;;;;5045587;28;20848;-72
2023/08/30 02:30:17;;;;;;;4.20;3.90;;;12.40;99.90;;;;;;5032767;28;20453;-72
2023/08/30 02:32:43;;;;;;;6.33;4.53;;;12.40;99.90;;;;;;5032519;28;20866;-68
2023/08/30 02:35:09;;;;;;;5.23;4.73;;;12.40;99.90;;;;;;5030568;28;21029;-65
2023/08/30 02:37:34;;;;;;;5.23;4.10;;;12.40;99.90;;;;;;5032654;28;20598;-65
2023/08/30 02:40:00;;;;;;;4.13;3.83;;;12.40;99.90;;;;;;5035014;28;20869;-71
2023/08/30 02:42:26;;;;;;;4.50;3.87;;;12.30;99.90;;;;;;5046874;28;20171;-65
2023/08/30 02:44:52;;;;;;;4.83;4.43;;;12.30;99.90;;;;;;5032526;28;20891;-66
2023/08/30 02:47:18;;;;;;;4.90;4.50;;;12.30;99.90;;;;;;5030611;28;20215;-72
2023/08/30 02:49:44;;;;;;;6.00;5.40;;;12.30;99.90;;;;;;5032272;28;20432;-72
2023/08/30 02:52:09;;;;;;;5.17;4.37;;;12.30;99.90;;;;;;5032688;28;20179;-65
2023/08/30 02:54:35;;;;;;;5.20;4.20;;;12.30;99.90;;;;;;5032505;28;20207;-65
2023/08/30 02:57:01;;;;;;;4.53;4.20;;;12.40;99.90;;;;;;5044506;28;20222;-72
2023/08/30 02:59:27;;;;;;;4.90;4.40;;;12.40;99.90;;;;;;5032217;28;20164;-65
2023/08/30 03:01:52;;;;;;;5.07;4.07;;;12.40;99.90;;;;;;5032421;28;20176;-67
2023/08/30 03:04:18;;;;;;;7.23;4.90;;;12.50;99.90;;;;;;5032489;28;20281;-71
2023/08/30 03:06:44;;;;;;;6.23;5.43;;;12.50;99.90;;;;;;5040990;28;20175;-71
2023/08/30 03:09:10;;;;;;;5.73;5.23;;;12.60;99.90;;;;;;5052309;28;20556;-72
2023/08/30 03:11:35;;;;;;;5.07;4.73;;;12.60;99.90;;;;;;5042450;28;20422;-70
2023/08/30 03:14:01;;;;;;;8.10;5.50;;;12.70;99.90;;;;;;5031210;28;20203;-72
2023/08/30 03:16:27;;;;;;;5.60;5.10;;;12.70;99.90;;;;;;5030980;28;20169;-65
2023/08/30 03:18:53;;;;;;;5.80;5.30;;;12.80;99.90;;;;;;5032800;28;20187;-65
2023/08/30 03:21:19;;;;;;;5.97;5.37;;;12.80;99.90;;;;;;5035500;28;20408;-66
2023/08/30 03:23:44;;;;;;;10.33;6.40;;;12.90;99.90;;;;;;5035548;28;20207;-70
2023/08/30 03:26:14;;;;;;;8.13;6.83;;;13.00;99.90;;;;;;5036578;28;20179;-67
2023/08/30 03:28:41;;;;;;;7.80;7.00;;;13.00;99.90;;;;;;5035911;28;20191;-73
2023/08/30 03:31:20;;;;;;;7.67;6.67;;;13.10;99.90;;;;;;5035900;28;20775;-67
2023/08/30 03:33:48;;;;;;;7.70;6.97;;;13.10;99.90;;;;;;5033624;28;20443;-72
2023/08/30 03:36:17;;;;;;;7.10;5.63;;;13.20;99.90;;;;;;5034806;28;20418;-68
2023/08/30 03:38:44;;;;;;;6.63;5.93;;;13.20;99.90;;;;;;5035754;28;20451;-65
2023/08/30 03:41:11;;;;;;;8.60;6.80;;;13.20;99.90;;;;;;5035511;28;21029;-72
2023/08/30 03:43:37;;;;;;;9.30;6.47;;;13.30;99.90;;;;;;5035207;28;20418;-66
2023/08/30 03:46:03;;;;;;;6.93;6.23;;;13.30;99.90;;;;;;5033760;28;20391;-66
2023/08/30 03:48:30;;;;;;;7.03;6.40;;;13.40;99.90;;;;;;5035023;28;20836;-65
2023/08/30 03:50:56;;;;;;;7.60;6.90;;;13.40;99.90;;;;;;5034897;28;20184;-72
2023/08/30 03:53:22;;;;;;;7.13;6.43;;;13.40;99.90;;;;;;5035601;28;20446;-65
2023/08/30 03:55:48;;;;;;;8.33;7.27;;;13.40;99.90;;;;;;5037075;28;20771;-71
2023/08/30 03:58:14;;;;;;;8.50;7.60;;;13.40;99.90;;;;;;5035276;28;20417;-71
2023/08/30 04:00:40;;;;;;;10.40;7.83;;;13.50;99.90;;;;;;5035363;28;20258;-66
2023/08/30 04:03:08;;;;;;;11.70;9.20;;;13.50;99.90;;;;;;5034004;28;20650;-71
2023/08/30 04:05:34;;;;;;;9.33;8.40;;;13.50;99.90;;;;;;5034076;28;20167;-66
2023/08/30 04:08:02;;;;;;;10.97;9.33;;;13.60;99.90;;;;;;5034907;28;20958;-65
2023/08/30 04:10:27;;;;;;;12.40;9.70;;;13.60;99.90;;;;;;5040340;28;20437;-71
2023/08/30 04:12:53;;;;;;;11.77;9.70;;;13.60;99.90;;;;;;5035208;28;20410;-66
2023/08/30 04:15:19;;;;;;;12.57;9.60;;;13.70;99.90;;;;;;5034278;28;20529;-65
2023/08/30 04:17:45;;;;;;;12.07;9.43;;;13.70;99.90;;;;;;5035040;28;20190;-65
2023/08/30 04:20:11;;;;;;;10.67;8.93;;;13.70;99.90;;;;;;5035093;28;20756;-71
2023/08/30 04:22:37;;;;;;;9.90;8.90;;;13.70;99.90;;;;;;5034283;28;20811;-71
2023/08/30 04:25:04;;;;;;;9.10;8.20;;;13.80;99.90;;;;;;5034116;28;20541;-73
2023/08/30 04:27:29;;;;;;;9.37;8.40;;;13.80;99.90;;;;;;5034906;28;20422;-65
2023/08/30 04:29:55;;;;;;;12.13;10.30;;;13.80;99.90;;;;;;5034436;28;20402;-66
2023/08/30 04:32:21;;;;;;;11.67;9.50;;;13.80;99.90;;;;;;5033295;28;20699;-66
2023/08/30 04:34:46;;;;;;;8.87;7.97;;;13.90;99.90;;;;;;5034650;28;20730;-71
2023/08/30 04:37:13;;;;;;;10.53;8.70;;;13.90;99.90;;;;;;5033726;28;20184;-67
2023/08/30 04:39:39;;;;;;;9.57;8.10;;;13.90;99.90;;;;;;5032713;28;20163;-69
2023/08/30 04:42:05;;;;;;;14.73;10.00;;;13.90;99.90;;;;;;5045194;28;20517;-69
2023/08/30 04:44:32;;;;;;;10.23;9.17;;;14.00;99.90;;;;;;5038440;28;20528;-71
2023/08/30 04:46:57;;;;;;;10.60;9.47;;;14.00;99.90;;;;;;5033361;28;20167;-69
2023/08/30 04:49:25;;;;;;;10.33;9.20;;;14.00;99.90;;;;;;5034518;28;20460;-71
2023/08/30 04:51:51;;;;;;;15.33;10.03;;;14.10;99.90;;;;;;5033628;28;20191;-71
2023/08/30 04:54:16;;;;;;;14.10;10.67;;;14.10;99.90;;;;;;5034877;28;20474;-71
2023/08/30 04:56:42;;;;;;;18.60;10.60;;;14.10;99.90;;;;;;5053356;28;20401;-65
2023/08/30 04:59:08;;;;;;;12.27;9.80;;;14.10;99.90;;;;;;5053547;28;20210;-65
2023/08/30 05:01:33;;;;;;;18.33;9.40;;;14.10;99.90;;;;;;5052815;28;20261;-69
2023/08/30 05:03:59;;;;;;;13.23;10.10;;;14.20;99.90;;;;;;5054078;28;20643;-65
2023/08/30 05:06:25;;;;;;;12.53;10.30;;;14.20;99.90;;;;;;5050980;28;20248;-64
2023/08/30 05:08:51;;;;;;;10.77;8.53;;;14.20;99.90;;;;;;5041870;28;20211;-66
2023/08/30 05:11:17;;;;;;;13.57;8.87;;;14.30;99.90;;;;;;5043754;28;20429;-72
2023/08/30 05:13:42;;;;;;;11.50;9.40;;;14.30;99.90;;;;;;5033910;28;20222;-72
2023/08/30 05:16:08;;;;;;;11.53;8.67;;;14.30;99.90;;;;;;5032755;28;20659;-72
2023/08/30 05:18:34;;;;;;;11.30;9.20;;;14.40;99.90;;;;;;5033646;28;20192;-66
2023/08/30 05:20:59;;;;;;;9.13;7.73;;;14.40;99.90;;;;;;5033707;28;20593;-71
2023/08/30 05:23:25;;;;;;;9.43;8.43;;;14.50;99.90;;;;;;5033019;28;20193;-70
2023/08/30 05:25:51;;;;;;;10.13;8.23;;;14.50;99.90;;;;;;5051839;28;20211;-72
2023/08/30 05:28:16;;;;;;;10.50;8.97;;;14.50;99.90;;;;;;5052251;28;20198;-66
2023/08/30 05:30:43;;;;;;;11.23;8.90;;;14.50;99.90;;;;;;5053814;28;20539;-71
2023/08/30 05:33:09;;;;;;;8.77;7.60;;;14.50;99.90;;;;;;5052901;28;20245;-66
2023/08/30 05:35:35;;;;;;;12.80;7.13;;;14.60;99.90;;;;;;5052513;28;20500;-68
2023/08/30 05:38:00;;;;;;;10.50;8.70;;;14.70;99.90;;;;;;5044694;28;20253;-69
2023/08/30 05:40:26;;;;;;;10.53;8.57;;;14.70;99.90;;;;;;5033468;28;20187;-72
2023/08/30 05:42:52;;;;;;;8.80;7.90;;;14.70;99.90;;;;;;5033394;28;20174;-68
2023/08/30 05:45:17;;;;;;;12.50;8.80;;;14.80;99.90;;;;;;5031714;28;20199;-71
2023/08/30 05:47:43;;;;;;;9.77;8.57;;;14.80;99.90;;;;;;5031915;28;20564;-65
2023/08/30 05:50:09;;;;;;;11.40;9.00;;;14.90;99.90;;;;;;5032301;28;20199;-65
2023/08/30 05:52:35;;;;;;;10.00;8.87;;;14.90;99.90;;;;;;5033443;28;20191;-73
2023/08/30 05:55:00;;;;;;;12.40;8.60;;;15.00;99.90;;;;;;5031270;28;20214;-72
2023/08/30 05:57:28;;;;;;;12.43;8.73;;;15.00;99.90;;;;;;5032899;28;20206;-72
2023/08/30 05:59:54;;;;;;;10.23;8.30;;;15.10;99.90;;;;;;5032696;28;20652;-71
2023/08/30 06:02:20;;;;;;;11.67;9.90;;;15.10;99.90;;;;;;5033051;28;20500;-65
2023/08/30 06:04:45;;;;;;;9.77;8.13;;;15.20;99.90;;;;;;5033330;28;20183;-72
2023/08/30 06:07:11;;;;;;;13.17;8.27;;;15.30;99.90;;;;;;5031534;28;20278;-68
2023/08/30 06:09:37;;;;;;;10.13;8.20;;;15.30;99.90;;;;;;5033025;28;20573;-65
2023/08/30 06:12:03;;;;;;;9.40;8.23;;;15.20;99.90;;;;;;5032588;28;20171;-72
2023/08/30 06:14:29;;;;;;;9.03;8.23;;;15.30;99.90;;;;;;5032918;28;20965;-71
2023/08/30 06:16:55;;;;;;;10.33;8.30;;;15.30;99.90;;;;;;5031001;28;20414;-72
2023/08/30 06:19:20;;;;;;;11.07;7.80;;;15.30;99.90;;;;;;5032805;28;20253;-71
2023/08/30 06:21:46;;;;;;;11.43;9.33;;;15.30;99.90;;;;;;5033124;28;20254;-72
2023/08/30 06:24:11;;;;;;;12.60;8.83;;;15.30;99.90;;;;;;5031391;28;20184;-67
2023/08/30 06:26:37;;;;;;;11.03;9.13;;;15.30;99.90;;;;;;5032040;28;20284;-66
2023/08/30 06:29:03;;;;;;;10.63;7.80;;;15.30;99.90;;;;;;5032771;28;20200;-66
2023/08/30 06:31:29;;;;;;;10.53;7.60;;;15.30;99.90;;;;;;5032199;28;20174;-65
2023/08/30 06:33:54;;;;;;;9.67;8.00;;;15.30;99.90;;;;;;5032703;28;20564;-65
2023/08/30 06:36:22;;;;;;;10.50;8.03;;;15.30;99.90;;;;;;5032561;28;20595;-67
2023/08/30 06:38:48;;;;;;;9.50;8.50;;;15.40;99.90;;;;;;5032338;28;20531;-72
2023/08/30 06:41:14;;;;;;;13.37;8.70;;;15.40;99.90;;;;;;5047930;28;20437;-65
2023/08/30 06:43:40;;;;;;;9.60;8.10;;;15.40;99.90;;;;;;5051477;28;20186;-66
2023/08/30 06:46:05;;;;;;;12.70;9.97;;;15.40;99.90;;;;;;5051791;28;20174;-66
2023/08/30 06:48:31;;;;;;;16.37;9.50;;;15.40;99.90;;;;;;5052303;28;20302;-65
2023/08/30 06:50:58;;;;;;;12.03;9.00;;;15.50;99.90;;;;;;5046167;28;20553;-68
2023/08/30 06:53:27;;;;;;;14.43;9.47;;;15.50;99.90;;;;;;5032621;28;20668;-71
2023/08/30 06:56:02;;;;;;;12.50;9.43;;;15.50;99.90;;;;;;5035701;28;20441;-70
2023/08/30 06:58:28;;;;;;;14.97;11.37;;;15.70;99.90;;;;;;5036382;28;20968;-71
2023/08/30 07:00:56;;;;;;;15.07;10.63;;;15.70;99.90;;;;;;5035533;28;20414;-67
2023/08/30 07:03:22;;;;;;;14.27;10.13;;;15.70;99.90;;;;;;5036636;28;20163;-66
2023/08/30 07:05:47;;;;;;;14.10;8.80;;;15.80;99.90;;;;;;5039901;28;20777;-66
2023/08/30 07:08:16;;;;;;;18.60;9.03;;;15.90;99.90;;;;;;5055866;28;20712;-65
2023/08/30 07:10:42;;;;;;;13.33;9.53;;;16.00;99.90;;;;;;5055316;28;20194;-72
2023/08/30 07:13:11;;;;;;;14.03;10.17;;;16.00;99.90;;;;;;5056053;28;20437;-71
2023/08/30 07:15:41;;;;;;;14.83;10.20;;;16.10;99.90;;;;;;5055298;28;20499;-72
2023/08/30 07:18:08;;;;;;;16.70;10.87;;;16.20;99.90;;;;;;5055163;28;20436;-71
2023/08/30 07:20:34;;;;;;;11.43;10.07;;;16.20;99.90;;;;;;5045430;28;20422;-71
2023/08/30 07:23:01;;;;;;;14.40;10.40;;;16.30;99.90;;;;;;5049519;28;20436;-71
2023/08/30 07:25:26;;;;;;;12.63;10.13;;;16.40;99.90;;;;;;5054999;28;20483;-71
2023/08/30 07:27:52;;;;;;;12.30;10.10;;;16.40;99.90;;;;;;5055462;28;20833;-71
2023/08/30 07:30:18;;;;;;;12.63;9.97;;;16.50;99.90;;;;;;5055871;28;20275;-70
2023/08/30 07:32:43;;;;;;;11.53;9.00;;;16.70;99.90;;;;;;5056052;28;20167;-65
2023/08/30 07:35:09;;;;;;;12.30;9.90;;;16.70;99.90;;;;;;5053250;28;20663;-72
2023/08/30 07:37:35;;;;;;;11.77;9.30;;;16.80;99.90;;;;;;5055697;28;20198;-66
2023/08/30 07:40:04;;;;;;;14.43;9.67;;;16.90;99.90;;;;;;5052575;28;20628;-72
2023/08/30 07:42:30;;;;;;;12.00;9.70;;;16.90;99.90;;;;;;5035212;28;20425;-71
2023/08/30 07:44:56;;;;;;;9.73;8.73;;;17.00;99.90;;;;;;5034411;28;20422;-71
2023/08/30 07:47:21;;;;;;;10.30;8.73;;;17.10;99.90;;;;;;5034561;28;20215;-72
2023/08/30 07:49:47;;;;;;;11.27;9.97;;;17.20;99.90;;;;;;5039962;28;20195;-71
2023/08/30 07:52:13;;;;;;;8.37;7.40;;;17.20;99.90;;;;;;5055465;28;20174;-68
2023/08/30 07:54:40;;;;;;;12.73;7.80;;;17.30;99.90;;;;;;5055424;28;20195;-65
2023/08/30 07:57:06;;;;;;;7.97;7.17;;;17.40;99.90;;;;;;5054392;28;20177;-65
2023/08/30 07:59:38;;;;;;;7.40;6.70;;;17.60;99.90;;;;;;5037568;28;20469;-71
2023/08/30 08:02:07;;;;;;;7.57;6.87;;;17.70;99.90;;;;;;5034234;28;20904;-66
2023/08/30 08:04:36;;;;;;;9.77;6.77;;;17.70;99.70;;;;;;5043023;28;20487;-66
2023/08/30 08:07:03;;;;;;;7.97;4.90;;;17.80;94.90;;;;;;5051093;28;20413;-66
2023/08/30 08:09:29;;;;;;;8.10;5.90;;;17.90;94.90;;;;;;5035076;28;20917;-66
2023/08/30 08:11:56;;;;;;;6.40;5.80;;;18.00;76.40;;;;;;5037245;28;20426;-71
2023/08/30 08:14:24;;;;;;;6.10;5.47;;;18.10;53.80;;;;;;5039109;28;20211;-72
2023/08/30 08:16:50;;;;;;;7.63;6.93;;;18.20;39.90;;;;;;5034218;28;20402;-65
2023/08/30 08:19:16;;;;;;;6.17;5.57;;;18.30;34.50;;;;;;5037843;28;20964;-65
2023/08/30 08:21:42;;;;;;;7.73;6.50;;;18.30;5.90;;;;;;5035041;28;20179;-65
2023/08/30 08:24:08;;;;;;;8.53;7.17;;;18.30;1.40;;;;;;5033556;28;20176;-68
2023/08/30 08:26:33;;;;;;;6.93;6.33;;;18.30;1.00;;;;;;5046933;28;20513;-70
2023/08/30 08:28:59;;;;;;;8.57;7.47;;;18.40;1.00;;;;;;5054898;28;20221;-71
2023/08/30 08:31:25;;;;;;;8.70;7.00;;;18.50;1.00;;;;;;5053775;28;20544;-71
2023/08/30 08:34:04;;;;;;;7.73;6.93;;;18.60;1.00;;;;;;5054348;28;20449;-73
2023/08/30 08:36:30;;;;;;;10.27;6.63;;;18.60;1.00;;;;;;5033820;28;20171;-69
2023/08/30 08:38:56;;;;;;;8.70;6.70;;;18.50;1.00;;;;;;5034725;28;20425;-71
2023/08/30 08:41:31;;;;;;;10.03;7.90;;;18.60;1.00;;;;;;5033439;28;20418;-66
2023/08/30 08:43:57;;;;;;;12.87;7.20;;;18.70;1.00;;;;;;5033850;28;20190;-71
2023/08/30 08:46:24;;;;;;;8.40;7.27;;;18.80;1.00;;;;;;5033752;28;20414;-65
2023/08/30 08:48:51;;;;;;;9.13;7.93;;;18.90;1.00;;;;;;5034551;28;20511;-70
2023/08/30 08:51:17;;;;;;;7.60;6.83;;;19.00;1.00;;;;;;5051320;28;20484;-71
2023/08/30 08:53:43;;;;;;;12.80;8.23;;;19.10;1.00;;;;;;5054420;28;20536;-71
2023/08/30 08:56:09;;;;;;;9.23;7.57;;;19.10;1.00;;;;;;5053234;28;20518;-67
2023/08/30 08:58:37;;;;;;;10.87;6.97;;;19.20;1.00;;;;;;5052376;28;20475;-65
2023/08/30 09:01:05;;;;;;;6.20;5.60;;;19.10;1.00;;;;;;5034438;28;20402;-71
2023/08/30 09:03:34;;;;;;;11.63;7.03;;;19.10;1.00;;;;;;5034439;28;20414;-67
2023/08/30 09:06:02;;;;;;;8.50;6.70;;;19.10;1.00;;;;;;5033455;28;20440;-65
2023/08/30 09:08:28;;;;;;;7.47;6.70;;;19.10;1.00;;;;;;5033985;28;20477;-66
2023/08/30 09:10:54;;;;;;;7.60;6.90;;;19.10;1.00;;;;;;5045789;28;20437;-71
2023/08/30 09:13:22;;;;;;;8.03;7.07;;;19.20;1.00;;;;;;5034152;28;20678;-65
2023/08/30 09:15:48;;;;;;;10.30;6.30;;;19.10;1.00;;;;;;5032930;28;20568;-70
2023/08/30 09:18:16;;;;;;;7.00;6.30;;;19.10;1.00;;;;;;5033251;28;20419;-66
2023/08/30 09:20:42;;;;;;;7.30;6.60;;;19.10;1.00;;;;;;5042139;28;20464;-64
2023/08/30 09:23:18;;;;;;;8.10;7.03;;;19.20;1.00;;;;;;5053878;28;20433;-72
2023/08/30 09:25:44;;;;;;;8.07;6.47;;;19.20;1.00;;;;;;5049816;28;20175;-72
2023/08/30 09:28:10;;;;;;;5.93;5.43;;;19.20;1.00;;;;;;5033524;28;20449;-72
2023/08/30 09:30:36;;;;;;;6.43;5.33;;;19.20;1.00;;;;;;5043376;28;20422;-65
2023/08/30 09:33:02;;;;;;;7.90;5.57;;;19.30;1.00;;;;;;5034170;28;20175;-65
2023/08/30 09:35:28;;;;;;;5.77;5.27;;;19.40;1.00;;;;;;5050649;28;20206;-72
2023/08/30 09:37:54;;;;;;;11.47;6.03;;;19.60;1.00;;;;;;5039053;28;20450;-65
2023/08/30 09:40:20;;;;;;;7.30;5.57;;;19.80;1.00;;;;;;5040055;28;20702;-69
2023/08/30 09:42:47;;;;;;;7.23;5.10;;;19.90;1.00;;;;;;5033539;28;20172;-70
2023/08/30 09:45:25;;;;;;;5.07;4.67;;;20.00;1.00;;;;;;5032938;28;20406;-65
2023/08/30 09:47:51;;;;;;;6.00;4.90;;;20.00;1.00;;;;;;5032646;28;20449;-68
2023/08/30 09:50:22;;;;;;;5.83;5.23;;;19.90;1.00;;;;;;5034237;28;20438;-64
2023/08/30 09:52:48;;;;;;;8.30;5.33;;;19.90;1.00;;;;;;5053347;28;20262;-64
2023/08/30 09:55:18;;;;;;;5.43;4.93;;;19.80;1.00;;;;;;5051812;28;20477;-69
2023/08/30 09:57:44;;;;;;;8.00;7.20;;;19.80;1.00;;;;;;5053175;28;20873;-70
2023/08/30 10:00:12;;;;;;;8.07;6.80;;;19.80;1.00;;;;;;5037681;28;20434;-68
2023/08/30 10:02:41;;;;;;;6.90;6.20;;;19.80;1.00;;;;;;5033335;28;20842;-70
2023/08/30 10:05:08;;;;;;;9.03;5.97;;;19.90;1.00;;;;;;5032302;28;20418;-68
2023/08/30 10:07:36;;;;;;;7.50;6.40;;;19.90;1.00;;;;;;5051074;28;20457;-64
2023/08/30 10:10:04;;;;;;;9.03;8.20;;;20.00;1.00;;;;;;5053147;28;20405;-64
2023/08/30 10:12:32;;;;;;;10.60;8.53;;;20.20;1.00;;;;;;5052350;28;20417;-69
2023/08/30 10:14:58;;;;;;;9.20;8.30;;;20.30;1.00;;;;;;5033348;28;20834;-68
2023/08/30 10:17:28;;;;;;;10.00;9.20;;;20.40;1.00;;;;;;5032406;28;20521;-64
2023/08/30 10:19:55;;;;;;;9.60;8.70;;;20.30;1.00;;;;;;5047486;28;20563;-64
2023/08/30 10:22:23;;;;;;;10.57;9.50;;;20.00;1.00;;;;;;5051645;28;20913;-61
2023/08/30 10:24:54;;;;;;;9.40;8.50;;;19.90;1.00;;;;;;5052926;28;20759;-71
2023/08/30 10:27:22;;;;;;;10.00;9.10;;;19.80;1.00;;;;;;5049126;28;20494;-71
2023/08/30 10:29:49;;;;;;;10.30;9.30;;;19.80;1.00;;;;;;5051410;28;20429;-65
2023/08/30 10:32:21;;;;;;;10.23;9.13;;;19.80;1.00;;;;;;5052305;28;20413;-71
2023/08/30 10:34:51;;;;;;;9.60;8.70;;;19.80;1.00;;;;;;5052539;28;20965;-64
2023/08/30 10:37:23;;;;;;;9.57;8.67;;;19.80;1.00;;;;;;5050397;28;20460;-68
2023/08/30 10:39:49;;;;;;;9.23;8.33;;;20.00;1.00;;;;;;5051899;28;20511;-70
2023/08/30 10:42:16;;;;;;;10.73;9.43;;;20.00;1.00;;;;;;5032636;28;20929;-64
2023/08/30 10:44:57;;;;;;;10.27;9.30;;;20.00;1.00;;;;;;5032831;28;20171;-64
2023/08/30 10:47:30;;;;;;;11.10;9.57;;;19.80;1.00;;;;;;5032033;28;20787;-67
2023/08/30 10:49:58;;;;;;;8.80;8.00;;;19.70;1.00;;;;;;5032010;28;20462;-72
2023/08/30 10:52:24;;;;;;;11.77;8.73;;;19.50;1.00;;;;;;5043209;28;20827;-66
2023/08/30 10:54:51;;;;;;;9.90;8.00;;;19.50;1.00;;;;;;5045197;28;20846;-71
2023/08/30 10:57:36;;;;;;;8.20;7.40;;;19.60;1.00;;;;;;5031879;28;20430;-71
2023/08/30 11:00:07;;;;;;;11.37;8.37;;;19.60;1.00;;;;;;5032739;28;20414;-71
2023/08/30 11:02:33;;;;;;;9.23;8.23;;;19.60;1.00;;;;;;5032693;28;20429;-71
2023/08/30 11:05:03;;;;;;;7.87;7.17;;;19.60;1.00;;;;;;5032543;28;20422;-72
2023/08/30 11:07:29;;;;;;;8.30;7.33;;;19.70;1.00;;;;;;5049752;28;20488;-65
2023/08/30 11:09:55;;;;;;;9.93;8.10;;;19.70;1.00;;;;;;5051883;28;20914;-72
2023/08/30 11:12:29;;;;;;;9.77;8.67;;;19.80;1.00;;;;;;5038450;28;20434;-70
2023/08/30 11:14:56;;;;;;;9.17;8.07;;;19.90;1.00;;;;;;5031484;28;20457;-65
2023/08/30 11:17:22;;;;;;;8.00;6.73;;;20.20;1.00;;;;;;5030143;28;21072;-65
2023/08/30 11:19:57;;;;;;;7.43;6.30;;;20.30;1.00;;;;;;5032435;28;20432;-65
2023/08/30 11:22:23;;;;;;;6.00;5.40;;;20.20;1.00;;;;;;5035090;28;20433;-67
2023/08/30 11:24:49;;;;;;;7.13;6.50;;;20.30;1.00;;;;;;5032034;28;20493;-71
2023/08/30 11:27:17;;;;;;;5.83;5.33;;;20.40;1.00;;;;;;5031577;28;20421;-72
2023/08/30 11:29:43;;;;;;;8.00;6.00;;;20.70;1.00;;;;;;5032435;28;20485;-72
2023/08/30 11:32:09;;;;;;;6.10;5.40;;;20.90;1.00;;;;;;5032462;28;20512;-71
2023/08/30 11:34:34;;;;;;;9.30;6.53;;;21.00;1.00;;;;;;5031065;28;20203;-65
2023/08/30 11:37:00;;;;;;;7.20;5.83;;;21.20;1.00;;;;;;5030814;28;20180;-70
2023/08/30 11:39:28;;;;;;;6.53;5.83;;;21.20;1.00;;;;;;5031585;28;20226;-72
2023/08/30 11:41:55;;;;;;;5.13;4.83;;;21.20;1.00;;;;;;5035253;28;20441;-72
2023/08/30 11:44:24;;;;;;;8.37;6.87;;;21.30;1.00;;;;;;5035883;28;20464;-66
2023/08/30 11:47:00;;;;;;;6.13;5.40;;;21.30;1.00;;;;;;5035031;28;20491;-65
2023/08/30 11:49:29;;;;;;;7.43;5.33;;;21.50;1.00;;;;;;5035185;28;20887;-65
2023/08/30 11:51:57;;;;;;;6.53;5.93;;;21.90;1.00;;;;;;5035720;28;20406;-65
2023/08/30 11:54:26;;;;;;;6.30;5.33;;;21.90;1.00;;;;;;5035606;28;20457;-72
2023/08/30 11:56:52;;;;;;;6.90;6.30;;;22.00;1.00;;;;;;5034984;28;20973;-68
2023/08/30 11:59:21;;;;;;;6.80;6.10;;;22.10;1.00;;;;;;5035040;28;20488;-67
2023/08/30 12:01:49;;;;;;;7.80;5.93;;;22.50;1.00;;;;;;5034871;28;20171;-71
2023/08/30 12:04:15;;;;;;;7.77;5.97;;;22.70;1.00;;;;;;5035575;28;20527;-72
2023/08/30 12:06:41;;;;;;;6.93;6.20;;;22.90;1.00;;;;;;5050410;28;20954;-65
2023/08/30 12:09:12;;;;;;;6.00;5.50;;;22.70;1.00;;;;;;5055167;28;20639;-65
2023/08/30 12:11:37;;;;;;;6.70;6.10;;;22.40;1.00;;;;;;5054087;28;20500;-69
2023/08/30 12:14:03;;;;;;;6.63;6.13;;;22.10;1.00;;;;;;5055216;28;20895;-72
2023/08/30 12:16:29;;;;;;;7.40;6.40;;;21.90;1.00;;;;;;5054320;28;20167;-72
2023/08/30 12:18:55;;;;;;;5.93;5.43;;;21.50;99.90;;;;;;5054392;28;20183;-67
2023/08/30 12:21:21;;;;;;;5.73;5.23;;;21.10;99.90;;;;;;5054136;28;20171;-67
2023/08/30 12:23:46;;;;;;;6.70;5.83;;;20.80;99.90;;;;;;5052610;28;20429;-74
2023/08/30 12:26:12;;;;;;;7.67;5.50;;;20.70;99.90;;;;;;5042489;28;20184;-75
2023/08/30 12:28:40;;;;;;;8.83;6.47;;;20.80;99.90;;;;;;5034923;28;20199;-71
2023/08/30 12:31:06;;;;;;;7.40;5.60;;;21.20;1.00;;;;;;5035031;28;20229;-74
2023/08/30 12:33:34;;;;;;;7.57;5.30;;;21.70;1.00;;;;;;5035022;28;20464;-71
2023/08/30 12:36:00;;;;;;;8.30;6.07;;;22.10;1.00;;;;;;5047975;28;20786;-75
2023/08/30 12:38:26;;;;;;;7.00;6.30;;;22.50;1.00;;;;;;5054612;28;20421;-72
2023/08/30 12:40:53;;;;;;;7.47;6.23;;;22.70;99.90;;;;;;5054318;28;20412;-67
2023/08/30 12:43:21;;;;;;;6.13;5.60;;;22.70;99.90;;;;;;5054743;28;20436;-68